aviador You're here:

UGKO Decoded Metar

KOPITNARI in GEORGIA
Report Time2018-07-22 16:00:00
UTC Time2018-07-22 16:07:01
Flight Rules vfr VFR
Wind250° at 11 kt
W.Decomp.*RWY 26: 10.6 kt HW 3 kt LCW
W.Rank250° ranks 5
Current wind is above 250° avg. (8.7)
Visibility9999 m
Phenomena:N/A
Clouds:Scattered 040 Hf
Expected CloudBase > 2,400 ft AGL from Temp-Dew spread
CeilingNone
Temp26°C (ISA +11)
Dew Point20°C (70% RH)
AAT25.8°C
QNH1008 hPa
Density Alt2,024 ft
Elevation223 ft
Report Wrong Elevation
Raw Report
METAR UGKO 221600Z 25011KT 9999 SCT040 26/20 Q1008 NOSIG=

Extra information for UGKO:More info

Metar Taf Metar & Taf Last 4 Metars F.Rules Stats Wind Profile Meteogram Temp Stats Airport Information Weather charts Add Link Nearby VenuesMetar ALERT Operation Metar Decoded Social comments